Pede Vento — CRLZ9 — position and weather

sailwx.info

Track history (hours):
 
Tides and Currents Weather Stations Pressure Air Temp Water Temp Dewpoint Dewpoint Depression Visibility Wind Speed Wind Dir Waves Ship Positions

Pede Vento

Last reported at 2016-Aug-28 20:14 UTC. Time now 2016-Aug-31 04:24 UTC.
Position N 38°42' W 009°11'.

Length 12 m.

Type: Sailing vessel. MMSI: 263819560.

Date/timePositionNaut miles runAvg speedWind from/ knotsBaromVisibWave heightAir tempDewpointWater temp
2016-Aug-28 20:14N 38°42' W 009°11'4 6.1
2016-Aug-28 19:33N 38°41' W 009°17'6 6.4
2016-Aug-28 18:33N 38°42' W 009°25'0 0.4
2016-Aug-28 17:33N 38°41' W 009°25'1 1.2
2016-Aug-28 16:19N 38°40' W 009°24'1 0.7
2016-Aug-28 15:30N 38°41' W 009°24'0 0.2
2016-Aug-28 14:30N 38°41' W 009°24'1 0.5
2016-Aug-28 13:31N 38°40' W 009°24'2 1.8
2016-Aug-28 12:33N 38°40' W 009°26'2 2.5
2016-Aug-28 11:33N 38°40' W 009°23'1 1.2
2016-Aug-28 10:33N 38°41' W 009°24'1 0.1
2016-Aug-27 16:25N 38°42' W 009°25'4 5.0
2016-Aug-27 15:33N 38°37' W 009°24'1 1.4
2016-Aug-27 14:31N 38°39' W 009°25'2 2.5
2016-Aug-27 13:33N 38°40' W 009°27'3 2.5
2016-Aug-27 12:30N 38°41' W 009°25'0 0.0
2016-Aug-26 17:32N 38°41' W 009°25'0 0.0
2016-Aug-26 16:20N 38°41' W 009°25'0 0.3
2016-Aug-26 15:32N 38°42' W 009°25'2 2.2
2016-Aug-26 14:33N 38°41' W 009°27'2 1.5
2016-Aug-26 13:30N 38°40' W 009°26'1 1.0
2016-Aug-26 12:33N 38°40' W 009°27'1 0.8
2016-Aug-26 11:33N 38°40' W 009°26'6 0.4
2016-Aug-25 18:33N 38°41' W 009°18'  
Track history (hours):
 
Tides and Currents Weather Stations Pressure Air Temp Water Temp Dewpoint Dewpoint Depression Visibility Wind Speed Wind Dir Waves Ship Positions

Pede Vento

Last reported at 2016-Aug-28 20:14 UTC. Time now 2016-Aug-31 04:24 UTC.
Position N 38°42' W 009°11'.

Length 12 m.

Type: Sailing vessel. MMSI: 263819560.

Date/timePositionNaut miles runAvg speedWind from/ knotsBaromVisibWave heightAir tempDewpointWater temp
2016-Aug-28 20:14N 38°42' W 009°11'4 6.1
2016-Aug-28 19:33N 38°41' W 009°17'6 6.4
2016-Aug-28 18:33N 38°42' W 009°25'0 0.4
2016-Aug-28 17:33N 38°41' W 009°25'1 1.2
2016-Aug-28 16:19N 38°40' W 009°24'1 0.7
2016-Aug-28 15:30N 38°41' W 009°24'0 0.2
2016-Aug-28 14:30N 38°41' W 009°24'1 0.5
2016-Aug-28 13:31N 38°40' W 009°24'2 1.8
2016-Aug-28 12:33N 38°40' W 009°26'2 2.5
2016-Aug-28 11:33N 38°40' W 009°23'1 1.2
2016-Aug-28 10:33N 38°41' W 009°24'1 0.1
2016-Aug-27 16:25N 38°42' W 009°25'4 5.0
2016-Aug-27 15:33N 38°37' W 009°24'1 1.4
2016-Aug-27 14:31N 38°39' W 009°25'2 2.5
2016-Aug-27 13:33N 38°40' W 009°27'3 2.5
2016-Aug-27 12:30N 38°41' W 009°25'0 0.0
2016-Aug-26 17:32N 38°41' W 009°25'0 0.0
2016-Aug-26 16:20N 38°41' W 009°25'0 0.3
2016-Aug-26 15:32N 38°42' W 009°25'2 2.2
2016-Aug-26 14:33N 38°41' W 009°27'2 1.5
2016-Aug-26 13:30N 38°40' W 009°26'1 1.0
2016-Aug-26 12:33N 38°40' W 009°27'1 0.8
2016-Aug-26 11:33N 38°40' W 009°26'6 0.4
2016-Aug-25 18:33N 38°41' W 009°18'  

Dump ship's entire track history